createdAt,value
2022-12-09T00:01:14.858Z,13.38
2022-12-09T00:03:44.108Z,10.65
2022-12-09T00:06:16.000Z,14.02
2022-12-09T00:08:45.873Z,12.88
2022-12-09T00:11:15.080Z,13.98
2022-12-09T00:13:43.667Z,14.38
2022-12-09T00:16:14.810Z,12.77
2022-12-09T00:18:44.010Z,13.50
2022-12-09T00:21:14.085Z,13.15
2022-12-09T00:23:43.026Z,12.70
2022-12-09T00:26:13.119Z,12.68
2022-12-09T00:28:41.610Z,14.52
2022-12-09T00:31:10.014Z,12.90
2022-12-09T00:33:38.187Z,36.70
2022-12-09T00:36:09.866Z,16.70
2022-12-09T00:38:38.690Z,17.17
2022-12-09T00:41:07.566Z,13.90
2022-12-09T00:43:37.549Z,13.70
2022-12-09T00:46:06.159Z,12.40
2022-12-09T00:48:36.224Z,12.30
2022-12-09T00:51:04.777Z,11.82
2022-12-09T00:53:33.326Z,12.38
2022-12-09T00:56:01.854Z,13.00
2022-12-09T00:58:30.202Z,12.25
2022-12-09T01:00:59.827Z,12.85
2022-12-09T01:03:28.650Z,11.80
2022-12-09T01:05:57.435Z,11.30
2022-12-09T01:08:25.930Z,11.15
2022-12-09T01:10:54.148Z,11.45
2022-12-09T01:13:22.367Z,10.82
2022-12-09T01:15:50.577Z,10.90
2022-12-09T01:18:20.113Z,11.57
2022-12-09T01:20:57.905Z,10.85
2022-12-09T01:23:26.894Z,10.40
2022-12-09T01:25:54.991Z,10.13
2022-12-09T01:28:23.140Z,11.13
2022-12-09T01:30:51.595Z,10.55
2022-12-09T01:33:21.262Z,10.23
2022-12-09T01:35:49.695Z,11.48
2022-12-09T01:38:17.785Z,10.10
2022-12-09T01:40:47.703Z,10.23
2022-12-09T01:43:19.298Z,11.30
2022-12-09T01:45:47.933Z,10.68
2022-12-09T01:48:18.147Z,10.18
2022-12-09T01:50:52.503Z,9.27
2022-12-09T01:53:25.083Z,9.00
2022-12-09T01:55:55.521Z,9.02
2022-12-09T01:58:24.090Z,7.83
2022-12-09T02:00:52.704Z,8.63
2022-12-09T02:03:20.984Z,8.77
2022-12-09T02:05:51.107Z,8.32
2022-12-09T02:08:21.188Z,8.45
2022-12-09T02:10:58.092Z,9.25
2022-12-09T02:13:39.400Z,8.57
2022-12-09T02:16:14.320Z,8.85
2022-12-09T02:18:51.699Z,7.70
2022-12-09T02:21:28.792Z,8.18
2022-12-09T02:24:03.037Z,8.75
2022-12-09T02:26:39.228Z,8.68
2022-12-09T02:29:46.354Z,12.75
2022-12-09T02:32:38.632Z,8.43
2022-12-09T02:35:12.080Z,8.93
2022-12-09T02:37:45.454Z,8.05
2022-12-09T02:40:19.491Z,8.38
2022-12-09T02:42:50.177Z,8.02
2022-12-09T02:45:21.089Z,7.82
2022-12-09T02:47:53.002Z,8.25
2022-12-09T02:50:26.774Z,7.63
2022-12-09T02:52:57.562Z,7.38
2022-12-09T02:55:26.352Z,8.25
2022-12-09T02:58:00.633Z,7.53
2022-12-09T03:00:30.061Z,7.15
2022-12-09T03:03:01.731Z,7.30
2022-12-09T03:05:42.409Z,6.15
2022-12-09T03:08:19.249Z,6.63
2022-12-09T03:11:02.300Z,6.13
2022-12-09T03:13:54.018Z,6.13
2022-12-09T03:16:31.115Z,6.43
2022-12-09T03:19:05.340Z,6.68
2022-12-09T03:21:42.152Z,6.55
2022-12-09T03:24:12.895Z,6.55
2022-12-09T03:26:43.709Z,5.07
2022-12-09T03:29:17.801Z,6.80
2022-12-09T03:31:48.616Z,6.13
2022-12-09T03:34:19.989Z,5.93
2022-12-09T03:39:27.284Z,6.15
2022-12-09T03:41:59.604Z,6.15
2022-12-09T03:44:35.692Z,6.65
2022-12-09T03:47:08.053Z,6.50
2022-12-09T03:49:38.361Z,6.38
2022-12-09T03:52:13.432Z,6.32
2022-12-09T03:54:44.912Z,6.50
2022-12-09T03:57:18.957Z,7.40
2022-12-09T03:59:53.479Z,6.15
2022-12-09T04:02:22.298Z,6.28
2022-12-09T04:04:50.712Z,6.30
2022-12-09T04:07:20.778Z,6.05
2022-12-09T04:09:49.052Z,6.35
2022-12-09T04:12:17.646Z,7.90
2022-12-09T04:14:46.408Z,6.00
2022-12-09T04:17:14.713Z,5.47
2022-12-09T04:19:43.289Z,6.13
2022-12-09T04:22:15.083Z,6.03
2022-12-09T04:24:44.710Z,6.20
2022-12-09T04:27:13.298Z,5.38
2022-12-09T04:29:41.505Z,5.30
2022-12-09T04:32:09.706Z,6.13
2022-12-09T04:34:37.911Z,5.82
2022-12-09T04:37:06.433Z,6.15
2022-12-09T04:39:34.930Z,6.35
2022-12-09T04:42:04.649Z,6.10
2022-12-09T04:44:32.914Z,6.68
2022-12-09T04:47:01.296Z,7.03
2022-12-09T04:49:29.638Z,6.45
2022-12-09T04:51:58.188Z,5.28
2022-12-09T04:54:26.679Z,7.15
2022-12-09T04:56:54.939Z,5.40
2022-12-09T04:59:24.458Z,6.68
2022-12-09T05:01:52.855Z,6.55
2022-12-09T05:04:21.505Z,6.05
2022-12-09T05:06:50.189Z,6.32
2022-12-09T05:09:18.945Z,6.97
2022-12-09T05:11:47.356Z,6.97
2022-12-09T05:14:15.887Z,6.47
2022-12-09T05:16:46.087Z,6.85
2022-12-09T05:19:14.533Z,6.60
2022-12-09T05:21:44.135Z,6.28
2022-12-09T05:24:12.526Z,5.72
2022-12-09T05:26:41.262Z,6.20
2022-12-09T05:29:09.441Z,6.43
2022-12-09T05:31:37.841Z,7.10
2022-12-09T05:34:07.773Z,6.10
2022-12-09T05:36:36.084Z,6.25
2022-12-09T05:39:04.956Z,6.47
2022-12-09T05:41:33.315Z,7.38
2022-12-09T05:44:02.200Z,6.68
2022-12-09T05:46:31.407Z,6.55
2022-12-09T05:48:59.847Z,7.43
2022-12-09T05:51:31.338Z,7.13
2022-12-09T05:56:31.829Z,6.95
2022-12-09T05:59:00.814Z,6.78
2022-12-09T06:01:31.984Z,7.13
2022-12-09T06:04:00.514Z,6.32
2022-12-09T06:06:32.150Z,7.10
2022-12-09T06:09:02.809Z,6.93
2022-12-09T06:11:32.963Z,6.70
2022-12-09T06:14:01.673Z,6.87
2022-12-09T06:16:30.721Z,6.53
2022-12-09T06:18:59.348Z,7.55
2022-12-09T06:21:27.959Z,7.22
2022-12-09T06:23:57.985Z,7.50
2022-12-09T06:26:28.241Z,8.18
2022-12-09T06:28:58.434Z,5.63
2022-12-09T06:31:28.443Z,8.65
2022-12-09T06:33:58.716Z,7.70
2022-12-09T06:36:29.073Z,7.40
2022-12-09T06:39:07.629Z,8.65
2022-12-09T06:41:38.119Z,5.70
2022-12-09T06:44:07.379Z,6.63
2022-12-09T06:46:36.103Z,6.53
2022-12-09T06:49:04.760Z,6.65
2022-12-09T06:51:33.307Z,7.28
2022-12-09T06:54:03.223Z,6.47
2022-12-09T06:56:32.669Z,6.65
2022-12-09T06:59:01.307Z,6.53
2022-12-09T07:01:30.101Z,6.88
2022-12-09T07:03:58.673Z,6.45
2022-12-09T07:06:31.021Z,6.45
2022-12-09T07:09:01.283Z,5.63
2022-12-09T07:11:32.006Z,5.82
2022-12-09T07:14:03.105Z,4.53
2022-12-09T07:16:31.938Z,6.05
2022-12-09T07:19:00.574Z,6.65
2022-12-09T07:21:30.433Z,5.65
2022-12-09T07:24:00.758Z,7.03
2022-12-09T07:26:35.210Z,7.03
2022-12-09T07:29:04.490Z,7.32
2022-12-09T07:31:33.637Z,6.47
2022-12-09T07:34:03.018Z,6.80
2022-12-09T07:36:33.642Z,6.45
2022-12-09T07:39:09.109Z,5.22
2022-12-09T07:41:39.488Z,6.65
2022-12-09T07:44:08.043Z,6.77
2022-12-09T07:46:37.117Z,6.63
2022-12-09T07:49:07.259Z,7.07
2022-12-09T07:51:36.275Z,6.72
2022-12-09T07:54:05.390Z,5.72
2022-12-09T07:56:33.786Z,5.75
2022-12-09T07:59:07.110Z,5.68
2022-12-09T08:01:36.436Z,6.20
2022-12-09T08:04:07.266Z,5.60
2022-12-09T08:06:37.086Z,6.47
2022-12-09T08:09:09.267Z,6.53
2022-12-09T08:11:38.001Z,6.22
2022-12-09T08:14:13.062Z,13.02
2022-12-09T08:16:43.410Z,6.97
2022-12-09T08:19:12.656Z,6.07
2022-12-09T08:21:41.700Z,5.85
2022-12-09T08:24:12.870Z,5.93
2022-12-09T08:29:14.313Z,6.40
2022-12-09T08:31:44.387Z,6.07
2022-12-09T08:34:13.550Z,7.15
2022-12-09T08:36:43.295Z,9.05
2022-12-09T08:39:12.385Z,6.70
2022-12-09T08:41:41.187Z,6.85
2022-12-09T08:44:13.599Z,7.20
2022-12-09T08:46:44.622Z,6.00
2022-12-09T08:49:14.344Z,7.63
2022-12-09T08:51:42.834Z,6.95
2022-12-09T08:54:11.428Z,7.13
2022-12-09T08:56:40.149Z,8.18
2022-12-09T08:59:08.472Z,7.32
2022-12-09T09:01:38.195Z,5.93
2022-12-09T09:04:09.496Z,6.90
2022-12-09T09:06:39.721Z,7.75
2022-12-09T09:09:10.209Z,6.60
2022-12-09T09:11:39.458Z,7.57
2022-12-09T09:14:10.827Z,7.95
2022-12-09T09:19:14.190Z,5.65
2022-12-09T09:21:42.510Z,6.35
2022-12-09T09:24:12.909Z,6.50
2022-12-09T09:26:44.254Z,5.73
2022-12-09T09:29:13.476Z,6.43
2022-12-09T09:31:43.336Z,7.20
2022-12-09T09:34:12.458Z,6.33
2022-12-09T09:36:42.904Z,6.15
2022-12-09T09:39:11.851Z,5.80
2022-12-09T09:41:47.186Z,6.75
2022-12-09T09:44:23.406Z,6.32
2022-12-09T09:46:55.530Z,5.10
2022-12-09T09:49:32.039Z,6.63
2022-12-09T09:52:05.290Z,6.07
2022-12-09T09:54:33.728Z,6.47
2022-12-09T09:57:07.835Z,6.25
2022-12-09T09:59:44.750Z,5.43
2022-12-09T10:02:24.072Z,6.03
2022-12-09T10:05:05.824Z,6.65
2022-12-09T10:07:42.381Z,6.70
2022-12-09T10:10:23.239Z,5.65
2022-12-09T10:13:08.360Z,9.70
2022-12-09T10:15:47.191Z,9.13
2022-12-09T10:18:21.036Z,7.80
2022-12-09T10:20:49.647Z,6.55
2022-12-09T10:23:18.396Z,5.90
2022-12-09T10:25:51.943Z,6.55
2022-12-09T10:28:23.936Z,5.75
2022-12-09T10:30:54.506Z,6.15
2022-12-09T10:33:33.523Z,6.55
2022-12-09T10:36:02.884Z,5.40
2022-12-09T10:38:32.429Z,5.20
2022-12-09T10:41:07.312Z,5.13
2022-12-09T10:43:38.872Z,5.30
2022-12-09T10:46:19.694Z,5.25
2022-12-09T10:48:58.954Z,5.13
2022-12-09T10:51:30.144Z,5.35
2022-12-09T10:54:00.989Z,6.80
2022-12-09T10:56:32.486Z,5.68
2022-12-09T10:59:12.708Z,6.53
2022-12-09T11:01:50.644Z,5.70
2022-12-09T11:04:26.348Z,5.75
2022-12-09T11:07:00.080Z,6.32
2022-12-09T11:09:32.244Z,5.82
2022-12-09T11:12:02.251Z,6.68
2022-12-09T11:14:35.751Z,6.32
2022-12-09T11:17:16.638Z,5.80
2022-12-09T11:19:50.908Z,5.63
2022-12-09T11:22:39.660Z,5.40
2022-12-09T11:25:24.949Z,5.70
2022-12-09T11:27:56.168Z,5.45
2022-12-09T11:30:27.009Z,5.20
2022-12-09T11:32:59.745Z,4.80
2022-12-09T11:35:38.512Z,4.95
2022-12-09T11:38:19.489Z,5.70
2022-12-09T11:41:04.224Z,4.43
2022-12-09T11:43:40.609Z,3.53
2022-12-09T11:46:21.580Z,5.00
2022-12-09T11:48:54.980Z,4.90
2022-12-09T11:51:30.073Z,7.07
2022-12-09T11:54:05.701Z,5.10
2022-12-09T11:56:36.024Z,5.35
2022-12-09T11:59:07.792Z,4.43
2022-12-09T12:01:48.862Z,5.15
2022-12-09T12:04:21.234Z,5.28
2022-12-09T12:06:56.758Z,5.10
2022-12-09T12:09:30.860Z,4.32
2022-12-09T12:12:06.211Z,5.68
2022-12-09T12:14:38.738Z,4.70
2022-12-09T12:17:15.037Z,5.00
2022-12-09T12:19:47.163Z,5.22
2022-12-09T12:22:52.979Z,4.70
2022-12-09T12:25:35.007Z,4.32
2022-12-09T12:28:22.872Z,5.30
2022-12-09T12:30:59.046Z,4.63
2022-12-09T12:36:39.984Z,4.60
2022-12-09T12:39:15.337Z,4.97
2022-12-09T12:41:52.892Z,5.00
2022-12-09T12:44:52.957Z,5.88
2022-12-09T12:47:26.132Z,6.07
2022-12-09T12:50:32.308Z,6.13
2022-12-09T12:53:10.240Z,5.55
2022-12-09T12:55:49.068Z,6.05
2022-12-09T12:58:30.028Z,5.68
2022-12-09T13:01:04.484Z,6.45
2022-12-09T13:03:40.512Z,6.60
2022-12-09T13:06:12.884Z,6.05
2022-12-09T13:08:45.634Z,6.13
2022-12-09T13:11:18.117Z,6.88
2022-12-09T13:13:52.759Z,7.80
2022-12-09T13:16:27.956Z,6.68
2022-12-09T13:19:07.521Z,7.47
2022-12-09T13:21:36.312Z,10.68
2022-12-09T13:24:18.190Z,9.88
2022-12-09T13:26:52.794Z,9.95
2022-12-09T13:29:38.035Z,7.32
2022-12-09T13:32:21.382Z,7.03
2022-12-09T13:34:54.647Z,5.25
2022-12-09T13:38:00.189Z,5.93
2022-12-09T13:40:35.408Z,5.63
2022-12-09T13:43:13.026Z,6.32
2022-12-09T13:45:51.660Z,6.57
2022-12-09T13:48:55.351Z,7.63
2022-12-09T13:51:27.490Z,6.85
2022-12-09T13:54:03.817Z,6.75
2022-12-09T13:56:35.415Z,8.35
2022-12-09T13:59:24.805Z,8.00
2022-12-09T14:01:58.768Z,5.57
2022-12-09T14:04:30.467Z,4.97
2022-12-09T14:07:10.716Z,4.28
2022-12-09T14:09:50.954Z,4.25
2022-12-09T14:12:51.998Z,5.00
2022-12-09T14:15:36.568Z,7.22
2022-12-09T14:18:26.691Z,6.43
2022-12-09T14:21:29.095Z,7.07
2022-12-09T14:24:34.481Z,6.70
2022-12-09T14:27:15.470Z,7.35
2022-12-09T14:29:55.723Z,7.50
2022-12-09T14:32:27.210Z,7.05
2022-12-09T14:35:23.976Z,7.75
2022-12-09T14:38:21.107Z,7.50
2022-12-09T14:41:07.198Z,8.00
2022-12-09T14:43:47.148Z,8.00
2022-12-09T14:46:25.577Z,8.57
2022-12-09T14:48:57.893Z,8.60
2022-12-09T14:51:34.454Z,9.15
2022-12-09T14:54:06.049Z,7.70
2022-12-09T14:56:35.170Z,7.68
2022-12-09T14:59:07.081Z,7.78
2022-12-09T15:01:56.367Z,8.82
2022-12-09T15:04:31.897Z,8.20
2022-12-09T15:07:16.085Z,8.00
2022-12-09T15:09:52.614Z,8.30
2022-12-09T15:12:22.970Z,9.75
2022-12-09T15:14:56.375Z,10.43
2022-12-09T15:17:28.418Z,8.73
2022-12-09T15:20:01.016Z,10.35
2022-12-09T15:22:33.470Z,10.13
2022-12-09T15:25:03.255Z,9.35
2022-12-09T15:27:31.738Z,8.60
2022-12-09T15:29:59.882Z,9.45
2022-12-09T15:32:30.368Z,8.23
2022-12-09T15:35:18.086Z,11.13
2022-12-09T15:37:48.468Z,9.23
2022-12-09T15:40:20.279Z,9.43
2022-12-09T15:42:52.190Z,9.98
2022-12-09T15:45:24.406Z,9.40
2022-12-09T15:47:57.735Z,11.07
2022-12-09T15:50:30.285Z,11.93
2022-12-09T15:53:06.670Z,10.55
2022-12-09T15:55:42.284Z,10.40
2022-12-09T15:58:14.189Z,12.60
2022-12-09T16:00:48.938Z,10.77
2022-12-09T16:03:20.264Z,10.93
2022-12-09T16:08:22.237Z,12.10
2022-12-09T16:10:52.018Z,11.65
2022-12-09T16:13:21.379Z,14.63
2022-12-09T16:15:52.603Z,13.73
2022-12-09T16:18:24.394Z,13.02
2022-12-09T16:21:18.875Z,13.30
2022-12-09T16:23:52.915Z,13.73
2022-12-09T16:26:28.465Z,15.25
2022-12-09T16:28:59.374Z,16.67
2022-12-09T16:31:28.197Z,14.95
2022-12-09T16:33:56.910Z,15.40
2022-12-09T16:36:27.763Z,15.77
2022-12-09T16:39:38.229Z,16.25
2022-12-09T16:42:22.336Z,16.92
2022-12-09T16:44:50.800Z,16.83
2022-12-09T16:47:20.980Z,16.13
2022-12-09T16:49:49.919Z,16.05
2022-12-09T16:52:21.479Z,18.02
2022-12-09T16:54:51.020Z,17.65
2022-12-09T16:57:21.635Z,17.05
2022-12-09T16:59:51.028Z,15.73
2022-12-09T17:02:26.476Z,16.58
2022-12-09T17:04:54.675Z,17.65
2022-12-09T17:07:22.821Z,21.63
2022-12-09T17:09:51.168Z,19.35
2022-12-09T17:12:20.744Z,20.30
2022-12-09T17:14:49.018Z,21.52
2022-12-09T17:17:17.188Z,20.95
2022-12-09T17:19:45.341Z,19.70
2022-12-09T17:22:13.633Z,17.10
2022-12-09T17:24:41.847Z,18.90
2022-12-09T17:27:10.549Z,20.23
2022-12-09T17:29:40.123Z,18.65
2022-12-09T17:32:08.399Z,19.85
2022-12-09T17:34:36.601Z,18.83
2022-12-09T17:37:04.937Z,19.40
2022-12-09T17:39:33.422Z,19.80
2022-12-09T17:42:01.968Z,18.17
2022-12-09T17:44:30.322Z,19.48
2022-12-09T17:46:59.799Z,19.00
2022-12-09T17:49:27.999Z,20.50
2022-12-09T17:51:56.312Z,19.20
2022-12-09T17:54:26.613Z,22.08
2022-12-09T17:56:54.922Z,20.10
2022-12-09T17:59:23.237Z,20.00
2022-12-09T18:01:51.367Z,21.17
2022-12-09T18:04:21.055Z,17.33
2022-12-09T18:06:49.260Z,18.77
2022-12-09T18:09:20.043Z,18.50
2022-12-09T18:11:48.556Z,17.95
2022-12-09T18:14:17.713Z,16.85
2022-12-09T18:16:47.167Z,16.88
2022-12-09T18:19:17.693Z,17.55
2022-12-09T18:21:47.628Z,18.03
2022-12-09T18:24:15.861Z,17.30
2022-12-09T18:26:43.987Z,17.30
2022-12-09T18:29:12.460Z,18.00
2022-12-09T18:31:41.574Z,15.38
2022-12-09T18:34:09.846Z,16.25
2022-12-09T18:36:38.130Z,17.00
2022-12-09T18:39:08.122Z,16.58
2022-12-09T18:41:36.483Z,18.02
2022-12-09T18:44:06.619Z,17.67
2022-12-09T18:46:37.784Z,17.70
2022-12-09T18:51:36.254Z,17.65
2022-12-09T18:54:05.383Z,17.20
2022-12-09T18:56:35.671Z,13.98
2022-12-09T18:59:07.121Z,12.88
2022-12-09T19:01:39.720Z,12.90
2022-12-09T19:04:12.025Z,14.73
2022-12-09T19:06:42.018Z,13.27
2022-12-09T19:09:12.144Z,15.30
2022-12-09T19:11:43.834Z,16.40
2022-12-09T19:14:12.358Z,15.90
2022-12-09T19:16:41.072Z,16.77
2022-12-09T19:19:10.916Z,13.88
2022-12-09T19:21:40.212Z,15.13
2022-12-09T19:24:09.634Z,16.20
2022-12-09T19:26:38.130Z,15.68
2022-12-09T19:29:09.106Z,14.45
2022-12-09T19:31:39.348Z,16.73
2022-12-09T19:34:09.468Z,15.20
2022-12-09T19:36:37.929Z,13.35
2022-12-09T19:39:09.386Z,15.55
2022-12-09T19:41:38.500Z,14.43
2022-12-09T19:44:08.874Z,13.82
2022-12-09T19:46:38.651Z,13.82
2022-12-09T19:49:06.842Z,14.13
2022-12-09T19:51:35.258Z,13.93
2022-12-09T19:54:03.738Z,15.95
2022-12-09T19:56:32.015Z,15.05
2022-12-09T19:59:01.470Z,14.70
2022-12-09T20:01:33.727Z,13.93
2022-12-09T20:04:19.216Z,15.20
2022-12-09T20:06:52.386Z,14.70
2022-12-09T20:09:24.121Z,14.57
2022-12-09T20:11:52.828Z,14.98
2022-12-09T20:14:21.201Z,15.20
2022-12-09T20:16:50.786Z,13.63
2022-12-09T20:19:19.840Z,15.20
2022-12-09T20:21:48.898Z,16.67
2022-12-09T20:24:17.190Z,13.77
2022-12-09T20:26:45.451Z,14.75
2022-12-09T20:29:14.089Z,14.88
2022-12-09T20:31:43.763Z,15.05
2022-12-09T20:34:16.194Z,15.38
2022-12-09T20:36:46.080Z,14.55
2022-12-09T20:39:17.937Z,15.10
2022-12-09T20:41:46.637Z,15.82
2022-12-09T20:44:16.211Z,14.95
2022-12-09T20:46:47.492Z,15.63
2022-12-09T20:51:47.040Z,12.65
2022-12-09T20:54:15.662Z,14.48
2022-12-09T20:56:43.940Z,11.98
2022-12-09T20:59:13.809Z,10.55
2022-12-09T21:01:43.656Z,10.45
2022-12-09T21:04:12.059Z,10.55
2022-12-09T21:06:43.010Z,12.05
2022-12-09T21:09:17.659Z,11.57
2022-12-09T21:11:46.082Z,11.40
2022-12-09T21:14:14.625Z,12.20
2022-12-09T21:16:47.039Z,11.20
2022-12-09T21:19:17.206Z,10.50
2022-12-09T21:21:48.520Z,11.32
2022-12-09T21:26:46.452Z,11.70
2022-12-09T21:29:16.404Z,11.68
2022-12-09T21:31:48.274Z,11.98
2022-12-09T21:34:17.756Z,10.25
2022-12-09T21:36:48.356Z,10.02
2022-12-09T21:39:17.464Z,10.00
2022-12-09T21:41:45.785Z,9.82
2022-12-09T21:44:16.949Z,9.73
2022-12-09T21:46:45.720Z,10.40
2022-12-09T21:49:14.845Z,9.68
2022-12-09T21:51:43.840Z,9.55
2022-12-09T21:54:13.732Z,9.20
2022-12-09T21:56:42.113Z,10.30
2022-12-09T21:59:12.251Z,12.18
2022-12-09T22:01:42.465Z,10.85
2022-12-09T22:04:13.502Z,10.00
2022-12-09T22:06:41.822Z,11.15
2022-12-09T22:09:11.847Z,9.65
2022-12-09T22:11:42.074Z,10.32
2022-12-09T22:14:11.402Z,11.00
2022-12-09T22:16:42.267Z,9.45
2022-12-09T22:19:14.201Z,8.98
2022-12-09T22:21:42.900Z,8.88
2022-12-09T22:24:12.974Z,9.57
2022-12-09T22:26:43.654Z,9.35
2022-12-09T22:29:13.258Z,9.88
2022-12-09T22:31:42.093Z,9.65
2022-12-09T22:34:13.499Z,9.13
2022-12-09T22:36:42.371Z,9.98
2022-12-09T22:39:13.947Z,8.57
2022-12-09T22:41:44.117Z,8.90
2022-12-09T22:44:14.043Z,9.18
2022-12-09T22:46:43.195Z,8.80
2022-12-09T22:49:13.104Z,8.30
2022-12-09T22:51:42.019Z,9.32
2022-12-09T22:54:11.270Z,8.50
2022-12-09T22:56:41.560Z,9.25
2022-12-09T22:59:11.437Z,9.00
2022-12-09T23:01:43.243Z,9.80
2022-12-09T23:04:12.975Z,9.00
2022-12-09T23:06:41.987Z,8.38
2022-12-09T23:09:14.626Z,8.93
2022-12-09T23:11:43.447Z,8.20
2022-12-09T23:14:13.227Z,8.13
2022-12-09T23:16:41.501Z,8.05
2022-12-09T23:19:11.623Z,8.27
2022-12-09T23:21:41.935Z,8.02
2022-12-09T23:24:12.674Z,5.57
2022-12-09T23:26:42.683Z,8.25
2022-12-09T23:29:16.278Z,6.85
2022-12-09T23:31:44.980Z,7.80
2022-12-09T23:34:14.266Z,7.50
2022-12-09T23:36:44.401Z,6.97
2022-12-09T23:39:16.425Z,7.32
2022-12-09T23:41:46.303Z,7.07
2022-12-09T23:44:18.967Z,6.95
2022-12-09T23:46:47.257Z,7.05
2022-12-09T23:49:16.229Z,7.10
2022-12-09T23:51:45.205Z,7.15
2022-12-09T23:54:14.989Z,7.65
2022-12-09T23:56:48.234Z,7.35
2022-12-09T23:59:20.049Z,6.38
